Aeroporto :
LOGIN :

Iscrizione | Disclaimer

   EN    FR    IT 

 










Sommario :    VFR   VFR Marginale   IFR   IFR Intensivo   IFR Molto Intensivo
Visibilità : 
Base nubi : 
>= 8 km
>= 3000ft
5 / 8 km
1000 / 3000 ft
1500m / 5 km
500 / 1000 ft
800 / 1500m
200 / 500 ft
< 800m
< 200 ft
Simboli :   Temporali  Nebbia  Neve Forte  Precipitazioni Forti  Vento > 20 kt
SIGMETs :   Varie  Temporali  Ghiacco  Turbolenza  Onda orograficha  Ceneri Vulcaniche






- Altitudine del aeroporto : 297 ft
- Codice IATA : BBU


LRBS - Bucarest - Baneasa Aurel Vlaicu

ULTIMO METAR :
  • 061700Z 25005KT 2500 BR BKN002 M02/M02 Q1023 BECMG 1500 BR

METARs OBSOLETI :
  • 061630Z AUTO 24006KT 3900 FG BKN002/// M02/M02 Q1023 NOSIG
  • 061600Z 24006KT 3000 BR BKN003 M02/M02 Q1023 NOSIG
  • 061530Z 25006KT 4000 BR BKN003 M02/M03 Q1023 BECMG 3000 BR
  • 061500Z 24007KT 4500 BR SCT003 M01/M02 Q1023 BECMG 3000 BR

TAF TAF LRBS
Valido dal 06 a 18 ore il 07 a 18 ore UTC


061700Z 0618/0718 25008KT 3000 BR OVC002
BECMG 0618/0620 0800 FZFG OVC001
BECMG 0620/0622 0350 FZFG
PROB40
TEMPO 0700/0706 0150 FZFG VV001
BECMG 0706/0708 0800 OVC002
BECMG 0708/0709 3000 BR BKN005
BECMG 0709/0710 CAVOK



MetMap, La meteo Aeronautica in un colpo d'occhio ! - Copyright ORBIFLY Dicembre 2007 - Disclaimer

ORBIFLY MET'MAP TEAM :

Programmazione e sviluppo : Alexandra Zaïnal
Concezione : Baudouin d'Aumeries
Aiuto per la programmazione : Marc-Olivier Méhu
Supporto tecnico e logistico : Manuel Goepfert
Aiuto per la traduzione : Arnaldo La Scala

Contatto : metmap@orbifly.com




FONTI E CREDITI :

   NOAA